Orlando, Florida
Traffic Map
Current Weather Conditions
Orlando, Florida
Clear
Clear
28°
Feels Like: 30°
Wind Chill: 28° Ceiling: Unl
Heat Index: 30° Visibility: 10mi
Dew Point: 22° Wind: 0mph
Humidity: 69% Direction: ° ()
Pressure: 29.97in Gusts: 0mph
Raw Report DataKORL 211553Z 00000KT 10SM CLR 28/22 A2997 RMK AO2 SLP151 T02780217
Traffic Incident Summary
Active as of:
Severity:
Category:
InformationThere was an issue retrieving the traffic information for this location. Please try a different location or try again shortly.
Advertisements
Track Severe Weather on mobile